sensor_id;sensor_type;location;lat;lon;timestamp;temperature;humidity
23081;DHT22;11708;50.570;8.532;2023-02-28T00:00:51;1.20;99.90
23081;DHT22;11708;50.570;8.532;2023-02-28T00:03:16;1.00;99.90
23081;DHT22;11708;50.570;8.532;2023-02-28T00:05:42;1.00;99.90
23081;DHT22;11708;50.570;8.532;2023-02-28T00:08:09;1.00;99.90
23081;DHT22;11708;50.570;8.532;2023-02-28T00:10:35;1.80;99.90
23081;DHT22;11708;50.570;8.532;2023-02-28T00:13:04;1.00;99.90
23081;DHT22;11708;50.570;8.532;2023-02-28T00:15:31;1.10;99.90
23081;DHT22;11708;50.570;8.532;2023-02-28T00:17:57;0.90;99.90
23081;DHT22;11708;50.570;8.532;2023-02-28T00:20:22;1.00;99.90
23081;DHT22;11708;50.570;8.532;2023-02-28T00:22:50;0.90;99.90
23081;DHT22;11708;50.570;8.532;2023-02-28T00:25:18;0.90;99.90
23081;DHT22;11708;50.570;8.532;2023-02-28T00:27:45;0.90;99.90
23081;DHT22;11708;50.570;8.532;2023-02-28T00:30:19;0.90;99.90
23081;DHT22;11708;50.570;8.532;2023-02-28T00:32:45;0.80;99.90
23081;DHT22;11708;50.570;8.532;2023-02-28T00:35:11;0.80;99.90
23081;DHT22;11708;50.570;8.532;2023-02-28T00:37:37;0.80;99.90
23081;DHT22;11708;50.570;8.532;2023-02-28T00:40:03;0.80;99.90
23081;DHT22;11708;50.570;8.532;2023-02-28T00:42:34;0.70;99.90
23081;DHT22;11708;50.570;8.532;2023-02-28T00:45:00;0.70;99.90
23081;DHT22;11708;50.570;8.532;2023-02-28T00:47:26;0.70;99.90
23081;DHT22;11708;50.570;8.532;2023-02-28T00:49:51;0.60;99.90
23081;DHT22;11708;50.570;8.532;2023-02-28T00:52:17;0.60;99.90
23081;DHT22;11708;50.570;8.532;2023-02-28T00:54:43;0.60;99.90
23081;DHT22;11708;50.570;8.532;2023-02-28T00:57:08;0.50;99.90
23081;DHT22;11708;50.570;8.532;2023-02-28T00:59:34;0.40;99.90
23081;DHT22;11708;50.570;8.532;2023-02-28T01:01:59;0.40;99.90
23081;DHT22;11708;50.570;8.532;2023-02-28T01:04:25;0.30;99.90
23081;DHT22;11708;50.570;8.532;2023-02-28T01:06:51;0.30;99.90
23081;DHT22;11708;50.570;8.532;2023-02-28T01:09:16;0.20;99.90
23081;DHT22;11708;50.570;8.532;2023-02-28T01:14:17;0.20;99.90
23081;DHT22;11708;50.570;8.532;2023-02-28T01:16:43;0.10;99.90
23081;DHT22;11708;50.570;8.532;2023-02-28T01:19:09;0.10;99.90
23081;DHT22;11708;50.570;8.532;2023-02-28T01:21:35;0.10;99.90
23081;DHT22;11708;50.570;8.532;2023-02-28T01:24:02;0.00;99.90
23081;DHT22;11708;50.570;8.532;2023-02-28T01:26:27;0.00;99.90
23081;DHT22;11708;50.570;8.532;2023-02-28T01:28:53;0.00;99.90
23081;DHT22;11708;50.570;8.532;2023-02-28T01:31:20;-0.10;99.90
23081;DHT22;11708;50.570;8.532;2023-02-28T01:36:18;-0.10;99.90
23081;DHT22;11708;50.570;8.532;2023-02-28T01:38:44;-0.10;99.90
23081;DHT22;11708;50.570;8.532;2023-02-28T01:41:16;-0.10;99.90
23081;DHT22;11708;50.570;8.532;2023-02-28T01:46:07;-0.20;99.90
23081;DHT22;11708;50.570;8.532;2023-02-28T01:48:36;-0.20;99.90
23081;DHT22;11708;50.570;8.532;2023-02-28T01:51:06;-0.20;99.90
23081;DHT22;11708;50.570;8.532;2023-02-28T01:53:39;-0.20;99.90
23081;DHT22;11708;50.570;8.532;2023-02-28T01:56:09;-0.30;99.90
23081;DHT22;11708;50.570;8.532;2023-02-28T01:58:37;-0.30;99.90
23081;DHT22;11708;50.570;8.532;2023-02-28T02:01:03;-0.30;99.90
23081;DHT22;11708;50.570;8.532;2023-02-28T02:03:30;-0.30;99.90
23081;DHT22;11708;50.570;8.532;2023-02-28T02:05:56;-0.30;99.90
23081;DHT22;11708;50.570;8.532;2023-02-28T02:08:24;-0.30;99.90
23081;DHT22;11708;50.570;8.532;2023-02-28T02:10:54;-0.40;99.90
23081;DHT22;11708;50.570;8.532;2023-02-28T02:24:58;-0.40;99.90
23081;DHT22;11708;50.570;8.532;2023-02-28T02:33:05;-0.50;99.90
23081;DHT22;11708;50.570;8.532;2023-02-28T02:35:43;-0.50;99.90
23081;DHT22;11708;50.570;8.532;2023-02-28T02:38:37;-0.50;99.90
23081;DHT22;11708;50.570;8.532;2023-02-28T02:41:19;-0.50;99.90
23081;DHT22;11708;50.570;8.532;2023-02-28T02:44:15;-0.60;99.90
23081;DHT22;11708;50.570;8.532;2023-02-28T02:46:44;-0.60;99.90
23081;DHT22;11708;50.570;8.532;2023-02-28T02:49:22;-0.60;99.90
23081;DHT22;11708;50.570;8.532;2023-02-28T02:54:19;-0.70;99.90
23081;DHT22;11708;50.570;8.532;2023-02-28T02:56:47;-0.70;99.90
23081;DHT22;11708;50.570;8.532;2023-02-28T02:59:16;-0.70;99.90
23081;DHT22;11708;50.570;8.532;2023-02-28T03:01:50;-0.70;99.90
23081;DHT22;11708;50.570;8.532;2023-02-28T03:04:20;-0.70;99.90
23081;DHT22;11708;50.570;8.532;2023-02-28T03:11:39;-0.80;99.90
23081;DHT22;11708;50.570;8.532;2023-02-28T03:16:52;-0.80;99.90
23081;DHT22;11708;50.570;8.532;2023-02-28T03:22:51;-0.90;99.90
23081;DHT22;11708;50.570;8.532;2023-02-28T03:25:44;-0.90;99.90
23081;DHT22;11708;50.570;8.532;2023-02-28T03:28:16;-0.90;99.90
23081;DHT22;11708;50.570;8.532;2023-02-28T03:30:51;-0.90;99.90
23081;DHT22;11708;50.570;8.532;2023-02-28T03:33:23;-1.00;99.90
23081;DHT22;11708;50.570;8.532;2023-02-28T03:36:11;-1.00;99.90
23081;DHT22;11708;50.570;8.532;2023-02-28T03:38:45;-1.00;99.90
23081;DHT22;11708;50.570;8.532;2023-02-28T03:41:25;-1.10;99.90
23081;DHT22;11708;50.570;8.532;2023-02-28T03:43:59;-1.10;99.90
23081;DHT22;11708;50.570;8.532;2023-02-28T03:46:31;-1.00;99.90
23081;DHT22;11708;50.570;8.532;2023-02-28T03:51:29;-1.00;99.90
23081;DHT22;11708;50.570;8.532;2023-02-28T03:53:59;-1.10;99.90
23081;DHT22;11708;50.570;8.532;2023-02-28T03:56:37;-1.00;99.90
23081;DHT22;11708;50.570;8.532;2023-02-28T04:01:50;-1.00;99.90
23081;DHT22;11708;50.570;8.532;2023-02-28T04:04:17;-1.00;99.90
23081;DHT22;11708;50.570;8.532;2023-02-28T04:06:43;-1.00;99.90
23081;DHT22;11708;50.570;8.532;2023-02-28T04:09:12;-1.10;99.90
23081;DHT22;11708;50.570;8.532;2023-02-28T04:11:53;-1.10;99.90
23081;DHT22;11708;50.570;8.532;2023-02-28T04:19:12;-1.20;99.90
23081;DHT22;11708;50.570;8.532;2023-02-28T04:21:43;-1.20;99.90
23081;DHT22;11708;50.570;8.532;2023-02-28T04:24:14;-1.20;99.90
23081;DHT22;11708;50.570;8.532;2023-02-28T04:26:41;-1.20;99.90
23081;DHT22;11708;50.570;8.532;2023-02-28T04:38:53;-1.30;99.90
23081;DHT22;11708;50.570;8.532;2023-02-28T04:48:38;-1.30;99.90
23081;DHT22;11708;50.570;8.532;2023-02-28T05:00:50;-1.40;99.90
23081;DHT22;11708;50.570;8.532;2023-02-28T05:17:53;-1.30;99.90
23081;DHT22;11708;50.570;8.532;2023-02-28T05:20:18;-1.30;99.90
23081;DHT22;11708;50.570;8.532;2023-02-28T05:22:44;-1.60;99.90
23081;DHT22;11708;50.570;8.532;2023-02-28T05:25:13;-1.30;99.90
23081;DHT22;11708;50.570;8.532;2023-02-28T05:30:07;-1.30;99.90
23081;DHT22;11708;50.570;8.532;2023-02-28T05:42:19;-1.30;99.90
23081;DHT22;11708;50.570;8.532;2023-02-28T05:44:45;-1.30;99.90
23081;DHT22;11708;50.570;8.532;2023-02-28T05:52:06;-1.30;99.90
23081;DHT22;11708;50.570;8.532;2023-02-28T05:59:23;-1.20;99.90
23081;DHT22;11708;50.570;8.532;2023-02-28T06:04:17;-1.20;99.90
23081;DHT22;11708;50.570;8.532;2023-02-28T06:06:45;-1.10;99.90
23081;DHT22;11708;50.570;8.532;2023-02-28T06:14:04;-0.90;99.90
23081;DHT22;11708;50.570;8.532;2023-02-28T06:16:31;-0.90;99.90
23081;DHT22;11708;50.570;8.532;2023-02-28T06:18:57;-0.80;99.90
23081;DHT22;11708;50.570;8.532;2023-02-28T06:31:10;-0.40;99.90
23081;DHT22;11708;50.570;8.532;2023-02-28T06:33:38;-0.40;99.90
23081;DHT22;11708;50.570;8.532;2023-02-28T06:36:04;-0.40;99.90
23081;DHT22;11708;50.570;8.532;2023-02-28T06:40:57;-0.20;99.90
23081;DHT22;11708;50.570;8.532;2023-02-28T06:43:24;-0.10;99.90
23081;DHT22;11708;50.570;8.532;2023-02-28T06:50:43;0.00;99.90
23081;DHT22;11708;50.570;8.532;2023-02-28T06:58:00;0.20;99.90
23081;DHT22;11708;50.570;8.532;2023-02-28T07:07:46;0.20;99.90
23081;DHT22;11708;50.570;8.532;2023-02-28T07:15:09;0.10;99.90
23081;DHT22;11708;50.570;8.532;2023-02-28T07:20:00;0.50;99.90
23081;DHT22;11708;50.570;8.532;2023-02-28T07:27:19;0.70;99.90
23081;DHT22;11708;50.570;8.532;2023-02-28T07:32:16;0.80;99.90
23081;DHT22;11708;50.570;8.532;2023-02-28T07:34:42;0.80;99.90
23081;DHT22;11708;50.570;8.532;2023-02-28T07:44:27;1.10;99.90
23081;DHT22;11708;50.570;8.532;2023-02-28T07:54:10;1.30;99.90
23081;DHT22;11708;50.570;8.532;2023-02-28T08:06:23;1.40;99.90
23081;DHT22;11708;50.570;8.532;2023-02-28T08:11:16;1.40;99.90
23081;DHT22;11708;50.570;8.532;2023-02-28T08:21:09;1.50;99.90
23081;DHT22;11708;50.570;8.532;2023-02-28T08:23:35;1.60;99.90
23081;DHT22;11708;50.570;8.532;2023-02-28T08:26:02;1.60;99.90
23081;DHT22;11708;50.570;8.532;2023-02-28T08:30:54;1.70;99.90
23081;DHT22;11708;50.570;8.532;2023-02-28T08:47:55;2.20;99.90
23081;DHT22;11708;50.570;8.532;2023-02-28T08:50:22;2.20;99.90
23081;DHT22;11708;50.570;8.532;2023-02-28T09:00:06;2.50;99.90
23081;DHT22;11708;50.570;8.532;2023-02-28T09:12:23;2.80;99.90
23081;DHT22;11708;50.570;8.532;2023-02-28T09:17:15;2.70;99.90
23081;DHT22;11708;50.570;8.532;2023-02-28T09:26:59;2.80;99.90
23081;DHT22;11708;50.570;8.532;2023-02-28T09:34:17;3.00;99.90
23081;DHT22;11708;50.570;8.532;2023-02-28T09:41:41;3.10;99.90
23081;DHT22;11708;50.570;8.532;2023-02-28T09:44:18;3.70;99.90
23081;DHT22;11708;50.570;8.532;2023-02-28T09:46:48;3.20;99.90
23081;DHT22;11708;50.570;8.532;2023-02-28T09:49:18;3.20;99.90
23081;DHT22;11708;50.570;8.532;2023-02-28T09:51:55;3.30;99.90
23081;DHT22;11708;50.570;8.532;2023-02-28T09:54:24;3.30;99.90
23081;DHT22;11708;50.570;8.532;2023-02-28T10:05:00;3.60;99.90
23081;DHT22;11708;50.570;8.532;2023-02-28T10:10:24;3.80;99.90
23081;DHT22;11708;50.570;8.532;2023-02-28T10:12:55;3.80;99.90
23081;DHT22;11708;50.570;8.532;2023-02-28T10:15:24;3.90;99.90
23081;DHT22;11708;50.570;8.532;2023-02-28T10:17:54;4.10;99.90
23081;DHT22;11708;50.570;8.532;2023-02-28T10:20:23;4.10;99.90
23081;DHT22;11708;50.570;8.532;2023-02-28T10:23:46;4.80;99.90
23081;DHT22;11708;50.570;8.532;2023-02-28T10:26:13;4.30;99.90
23081;DHT22;11708;50.570;8.532;2023-02-28T10:28:41;4.50;99.90
23081;DHT22;11708;50.570;8.532;2023-02-28T10:31:11;4.20;99.90
23081;DHT22;11708;50.570;8.532;2023-02-28T10:33:39;4.10;99.90
23081;DHT22;11708;50.570;8.532;2023-02-28T10:36:05;4.20;99.90
23081;DHT22;11708;50.570;8.532;2023-02-28T10:38:37;4.10;99.90
23081;DHT22;11708;50.570;8.532;2023-02-28T10:41:10;4.10;99.90
23081;DHT22;11708;50.570;8.532;2023-02-28T10:43:37;4.20;99.90
23081;DHT22;11708;50.570;8.532;2023-02-28T10:46:04;4.20;99.90
23081;DHT22;11708;50.570;8.532;2023-02-28T10:48:40;4.20;99.90
23081;DHT22;11708;50.570;8.532;2023-02-28T10:51:13;4.40;99.90
23081;DHT22;11708;50.570;8.532;2023-02-28T10:53:48;4.40;99.90
23081;DHT22;11708;50.570;8.532;2023-02-28T10:56:22;4.70;99.90
23081;DHT22;11708;50.570;8.532;2023-02-28T10:58:58;5.00;99.90
23081;DHT22;11708;50.570;8.532;2023-02-28T11:03:55;5.80;99.90
23081;DHT22;11708;50.570;8.532;2023-02-28T11:06:34;7.50;99.90
23081;DHT22;11708;50.570;8.532;2023-02-28T11:09:05;6.50;99.90
23081;DHT22;11708;50.570;8.532;2023-02-28T11:11:46;6.50;99.90
23081;DHT22;11708;50.570;8.532;2023-02-28T11:14:24;6.30;99.90
23081;DHT22;11708;50.570;8.532;2023-02-28T11:16:51;6.30;99.90
23081;DHT22;11708;50.570;8.532;2023-02-28T11:19:27;6.00;99.90
23081;DHT22;11708;50.570;8.532;2023-02-28T11:21:57;5.80;99.90
23081;DHT22;11708;50.570;8.532;2023-02-28T11:24:46;5.90;99.90
23081;DHT22;11708;50.570;8.532;2023-02-28T11:29:57;5.70;99.90
23081;DHT22;11708;50.570;8.532;2023-02-28T11:32:27;5.70;99.90
23081;DHT22;11708;50.570;8.532;2023-02-28T11:35:03;5.70;99.90
23081;DHT22;11708;50.570;8.532;2023-02-28T11:37:30;6.10;99.90
23081;DHT22;11708;50.570;8.532;2023-02-28T11:51:35;7.50;98.60
23081;DHT22;11708;50.570;8.532;2023-02-28T11:54:27;7.50;99.50
23081;DHT22;11708;50.570;8.532;2023-02-28T11:56:58;7.80;99.10
23081;DHT22;11708;50.570;8.532;2023-02-28T12:00:06;8.40;98.80
23081;DHT22;11708;50.570;8.532;2023-02-28T12:02:59;8.30;97.50
23081;DHT22;11708;50.570;8.532;2023-02-28T12:05:34;8.50;96.50
23081;DHT22;11708;50.570;8.532;2023-02-28T12:08:27;8.70;94.70
23081;DHT22;11708;50.570;8.532;2023-02-28T12:16:43;9.10;93.00
23081;DHT22;11708;50.570;8.532;2023-02-28T12:22:10;8.80;93.50
23081;DHT22;11708;50.570;8.532;2023-02-28T12:27:19;7.90;94.60
23081;DHT22;11708;50.570;8.532;2023-02-28T12:32:44;7.60;96.10
23081;DHT22;11708;50.570;8.532;2023-02-28T12:35:16;7.70;99.90
23081;DHT22;11708;50.570;8.532;2023-02-28T12:40:26;7.70;99.90
23081;DHT22;11708;50.570;8.532;2023-02-28T12:42:59;7.80;96.50
23081;DHT22;11708;50.570;8.532;2023-02-28T12:45:39;7.60;97.60
23081;DHT22;11708;50.570;8.532;2023-02-28T12:48:08;7.60;97.90
23081;DHT22;11708;50.570;8.532;2023-02-28T12:50:37;7.90;97.70
23081;DHT22;11708;50.570;8.532;2023-02-28T12:53:06;8.20;97.10
23081;DHT22;11708;50.570;8.532;2023-02-28T12:55:56;8.30;94.90
23081;DHT22;11708;50.570;8.532;2023-02-28T12:58:34;8.20;95.50
23081;DHT22;11708;50.570;8.532;2023-02-28T13:09:10;9.50;93.70
23081;DHT22;11708;50.570;8.532;2023-02-28T13:11:44;9.90;93.00
23081;DHT22;11708;50.570;8.532;2023-02-28T13:14:29;10.20;91.60
23081;DHT22;11708;50.570;8.532;2023-02-28T13:19:44;10.60;90.00
23081;DHT22;11708;50.570;8.532;2023-02-28T13:24:55;10.90;88.00
23081;DHT22;11708;50.570;8.532;2023-02-28T13:27:40;11.00;85.80
23081;DHT22;11708;50.570;8.532;2023-02-28T13:33:29;11.60;83.60
23081;DHT22;11708;50.570;8.532;2023-02-28T13:38:45;11.90;81.10
23081;DHT22;11708;50.570;8.532;2023-02-28T13:44:15;12.50;79.50
23081;DHT22;11708;50.570;8.532;2023-02-28T13:51:51;13.00;73.00
23081;DHT22;11708;50.570;8.532;2023-02-28T13:59:34;12.70;73.90
23081;DHT22;11708;50.570;8.532;2023-02-28T14:07:24;12.90;74.60
23081;DHT22;11708;50.570;8.532;2023-02-28T14:10:01;13.10;71.60
23081;DHT22;11708;50.570;8.532;2023-02-28T14:12:53;13.00;71.90
23081;DHT22;11708;50.570;8.532;2023-02-28T14:15:40;13.00;71.80
23081;DHT22;11708;50.570;8.532;2023-02-28T14:20:49;13.00;71.20
23081;DHT22;11708;50.570;8.532;2023-02-28T14:35:12;13.90;68.10
23081;DHT22;11708;50.570;8.532;2023-02-28T14:37:42;13.90;67.70
23081;DHT22;11708;50.570;8.532;2023-02-28T14:40:21;14.00;68.70
23081;DHT22;11708;50.570;8.532;2023-02-28T14:42:56;14.30;68.10
23081;DHT22;11708;50.570;8.532;2023-02-28T14:45:23;14.40;66.80
23081;DHT22;11708;50.570;8.532;2023-02-28T14:47:52;14.30;66.90
23081;DHT22;11708;50.570;8.532;2023-02-28T14:50:24;14.50;66.80
23081;DHT22;11708;50.570;8.532;2023-02-28T14:52:53;14.40;65.90
23081;DHT22;11708;50.570;8.532;2023-02-28T14:55:24;14.40;65.50
23081;DHT22;11708;50.570;8.532;2023-02-28T14:57:56;14.70;77.90
23081;DHT22;11708;50.570;8.532;2023-02-28T15:00:26;14.90;65.80
23081;DHT22;11708;50.570;8.532;2023-02-28T15:02:52;14.80;65.50
23081;DHT22;11708;50.570;8.532;2023-02-28T15:05:33;14.60;66.10
23081;DHT22;11708;50.570;8.532;2023-02-28T15:10:28;15.10;63.70
23081;DHT22;11708;50.570;8.532;2023-02-28T15:13:13;14.90;62.50
23081;DHT22;11708;50.570;8.532;2023-02-28T15:16:01;14.90;63.10
23081;DHT22;11708;50.570;8.532;2023-02-28T15:21:30;14.00;62.70
23081;DHT22;11708;50.570;8.532;2023-02-28T15:23:57;13.50;76.50
23081;DHT22;11708;50.570;8.532;2023-02-28T15:26:32;13.60;65.20
23081;DHT22;11708;50.570;8.532;2023-02-28T15:29:00;13.60;65.80
23081;DHT22;11708;50.570;8.532;2023-02-28T15:32:05;13.50;64.90
23081;DHT22;11708;50.570;8.532;2023-02-28T15:34:36;13.60;77.90
23081;DHT22;11708;50.570;8.532;2023-02-28T15:39:51;13.10;64.90
23081;DHT22;11708;50.570;8.532;2023-02-28T15:42:22;12.80;65.40
23081;DHT22;11708;50.570;8.532;2023-02-28T15:44:49;12.60;66.70
23081;DHT22;11708;50.570;8.532;2023-02-28T15:47:16;12.30;66.80
23081;DHT22;11708;50.570;8.532;2023-02-28T15:49:56;13.10;68.10
23081;DHT22;11708;50.570;8.532;2023-02-28T15:52:43;11.60;69.00
23081;DHT22;11708;50.570;8.532;2023-02-28T15:55:22;11.30;84.10
23081;DHT22;11708;50.570;8.532;2023-02-28T15:57:51;11.00;70.30
23081;DHT22;11708;50.570;8.532;2023-02-28T16:00:23;11.00;71.00
23081;DHT22;11708;50.570;8.532;2023-02-28T16:05:22;10.00;88.50
23081;DHT22;11708;50.570;8.532;2023-02-28T16:08:14;10.10;72.80
23081;DHT22;11708;50.570;8.532;2023-02-28T16:10:40;9.80;74.10
23081;DHT22;11708;50.570;8.532;2023-02-28T16:15:37;9.00;76.90
23081;DHT22;11708;50.570;8.532;2023-02-28T16:18:11;8.70;77.90
23081;DHT22;11708;50.570;8.532;2023-02-28T16:25:40;7.90;82.40
23081;DHT22;11708;50.570;8.532;2023-02-28T16:28:22;7.90;83.20
23081;DHT22;11708;50.570;8.532;2023-02-28T16:30:51;7.50;86.50
23081;DHT22;11708;50.570;8.532;2023-02-28T16:35:44;7.20;88.20
23081;DHT22;11708;50.570;8.532;2023-02-28T16:38:09;7.00;90.10
23081;DHT22;11708;50.570;8.532;2023-02-28T16:40:36;6.70;91.00
23081;DHT22;11708;50.570;8.532;2023-02-28T16:43:06;6.50;91.40
23081;DHT22;11708;50.570;8.532;2023-02-28T16:50:27;6.10;94.00
23081;DHT22;11708;50.570;8.532;2023-02-28T16:57:52;5.80;95.30
23081;DHT22;11708;50.570;8.532;2023-02-28T17:00:19;5.70;96.10
23081;DHT22;11708;50.570;8.532;2023-02-28T17:05:12;5.40;99.90
23081;DHT22;11708;50.570;8.532;2023-02-28T17:07:39;5.30;99.90
23081;DHT22;11708;50.570;8.532;2023-02-28T17:10:25;5.20;99.90
23081;DHT22;11708;50.570;8.532;2023-02-28T17:15:19;4.90;99.90
23081;DHT22;11708;50.570;8.532;2023-02-28T17:17:46;4.70;99.90
23081;DHT22;11708;50.570;8.532;2023-02-28T17:20:14;4.60;99.90
23081;DHT22;11708;50.570;8.532;2023-02-28T17:25:08;4.30;99.90
23081;DHT22;11708;50.570;8.532;2023-02-28T17:27:34;4.40;99.90
23081;DHT22;11708;50.570;8.532;2023-02-28T17:32:26;4.10;99.90
23081;DHT22;11708;50.570;8.532;2023-02-28T17:34:53;4.00;99.90
23081;DHT22;11708;50.570;8.532;2023-02-28T17:37:18;3.90;99.90
23081;DHT22;11708;50.570;8.532;2023-02-28T17:39:44;3.80;99.90
23081;DHT22;11708;50.570;8.532;2023-02-28T17:42:09;3.70;99.90
23081;DHT22;11708;50.570;8.532;2023-02-28T17:44:35;3.60;99.90
23081;DHT22;11708;50.570;8.532;2023-02-28T17:47:00;3.60;99.90
23081;DHT22;11708;50.570;8.532;2023-02-28T17:49:26;3.50;99.90
23081;DHT22;11708;50.570;8.532;2023-02-28T17:51:52;3.40;99.90
23081;DHT22;11708;50.570;8.532;2023-02-28T17:54:19;3.30;99.90
23081;DHT22;11708;50.570;8.532;2023-02-28T17:56:45;3.20;99.90
23081;DHT22;11708;50.570;8.532;2023-02-28T17:59:11;3.20;99.90
23081;DHT22;11708;50.570;8.532;2023-02-28T18:01:37;3.10;99.90
23081;DHT22;11708;50.570;8.532;2023-02-28T18:04:03;3.00;99.90
23081;DHT22;11708;50.570;8.532;2023-02-28T18:06:40;2.90;99.90
23081;DHT22;11708;50.570;8.532;2023-02-28T18:09:14;2.90;99.90
23081;DHT22;11708;50.570;8.532;2023-02-28T18:11:40;2.80;99.90
23081;DHT22;11708;50.570;8.532;2023-02-28T18:14:19;2.80;99.90
23081;DHT22;11708;50.570;8.532;2023-02-28T18:16:45;2.70;99.90
23081;DHT22;11708;50.570;8.532;2023-02-28T18:19:11;2.60;99.90
23081;DHT22;11708;50.570;8.532;2023-02-28T18:21:44;2.50;99.90
23081;DHT22;11708;50.570;8.532;2023-02-28T18:24:11;2.50;99.90
23081;DHT22;11708;50.570;8.532;2023-02-28T18:26:37;2.50;99.90
23081;DHT22;11708;50.570;8.532;2023-02-28T18:29:04;2.50;99.90
23081;DHT22;11708;50.570;8.532;2023-02-28T18:31:30;2.40;99.90
23081;DHT22;11708;50.570;8.532;2023-02-28T18:33:59;2.30;99.90
23081;DHT22;11708;50.570;8.532;2023-02-28T18:36:26;2.30;99.90
23081;DHT22;11708;50.570;8.532;2023-02-28T18:38:52;2.30;99.90
23081;DHT22;11708;50.570;8.532;2023-02-28T18:41:19;2.30;99.90
23081;DHT22;11708;50.570;8.532;2023-02-28T18:43:46;2.20;99.90
23081;DHT22;11708;50.570;8.532;2023-02-28T18:46:15;2.10;99.90
23081;DHT22;11708;50.570;8.532;2023-02-28T18:48:41;2.10;99.90
23081;DHT22;11708;50.570;8.532;2023-02-28T18:51:11;2.10;99.90
23081;DHT22;11708;50.570;8.532;2023-02-28T18:53:38;2.00;99.90
23081;DHT22;11708;50.570;8.532;2023-02-28T18:56:06;1.90;99.90
23081;DHT22;11708;50.570;8.532;2023-02-28T18:58:32;2.00;99.90
23081;DHT22;11708;50.570;8.532;2023-02-28T19:00:59;2.00;99.90
23081;DHT22;11708;50.570;8.532;2023-02-28T19:03:25;1.90;99.90
23081;DHT22;11708;50.570;8.532;2023-02-28T19:05:58;1.90;99.90
23081;DHT22;11708;50.570;8.532;2023-02-28T19:08:25;1.80;99.90
23081;DHT22;11708;50.570;8.532;2023-02-28T19:10:51;1.80;99.90
23081;DHT22;11708;50.570;8.532;2023-02-28T19:13:17;1.80;99.90
23081;DHT22;11708;50.570;8.532;2023-02-28T19:15:43;1.80;99.90
23081;DHT22;11708;50.570;8.532;2023-02-28T19:18:08;1.70;99.90
23081;DHT22;11708;50.570;8.532;2023-02-28T19:20:35;1.70;99.90
23081;DHT22;11708;50.570;8.532;2023-02-28T19:23:01;1.80;99.90
23081;DHT22;11708;50.570;8.532;2023-02-28T19:25:26;1.80;99.90
23081;DHT22;11708;50.570;8.532;2023-02-28T19:27:53;1.80;99.90
23081;DHT22;11708;50.570;8.532;2023-02-28T19:30:19;1.70;99.90
23081;DHT22;11708;50.570;8.532;2023-02-28T19:32:46;1.60;99.90
23081;DHT22;11708;50.570;8.532;2023-02-28T19:35:12;1.60;99.90
23081;DHT22;11708;50.570;8.532;2023-02-28T19:37:39;1.60;99.90
23081;DHT22;11708;50.570;8.532;2023-02-28T19:40:07;1.50;99.90
23081;DHT22;11708;50.570;8.532;2023-02-28T19:42:33;1.50;99.90
23081;DHT22;11708;50.570;8.532;2023-02-28T19:44:59;1.40;99.90
23081;DHT22;11708;50.570;8.532;2023-02-28T19:47:25;1.40;99.90
23081;DHT22;11708;50.570;8.532;2023-02-28T19:49:51;1.40;99.90
23081;DHT22;11708;50.570;8.532;2023-02-28T19:52:20;1.30;99.90
23081;DHT22;11708;50.570;8.532;2023-02-28T19:54:46;1.30;99.90
23081;DHT22;11708;50.570;8.532;2023-02-28T19:57:15;1.20;99.90
23081;DHT22;11708;50.570;8.532;2023-02-28T19:59:40;1.20;99.90
23081;DHT22;11708;50.570;8.532;2023-02-28T20:02:24;1.20;99.90
23081;DHT22;11708;50.570;8.532;2023-02-28T20:07:17;1.20;99.90
23081;DHT22;11708;50.570;8.532;2023-02-28T20:09:47;1.20;99.90
23081;DHT22;11708;50.570;8.532;2023-02-28T20:12:12;1.30;99.90
23081;DHT22;11708;50.570;8.532;2023-02-28T20:14:40;1.30;99.90
23081;DHT22;11708;50.570;8.532;2023-02-28T20:17:06;1.20;99.90
23081;DHT22;11708;50.570;8.532;2023-02-28T20:19:32;1.20;99.90
23081;DHT22;11708;50.570;8.532;2023-02-28T20:21:57;1.20;99.90
23081;DHT22;11708;50.570;8.532;2023-02-28T20:24:25;1.10;99.90
23081;DHT22;11708;50.570;8.532;2023-02-28T20:26:51;1.10;99.90
23081;DHT22;11708;50.570;8.532;2023-02-28T20:29:17;1.00;99.90
23081;DHT22;11708;50.570;8.532;2023-02-28T20:31:43;1.00;99.90
23081;DHT22;11708;50.570;8.532;2023-02-28T20:34:08;0.90;99.90
23081;DHT22;11708;50.570;8.532;2023-02-28T20:36:34;0.90;99.90
23081;DHT22;11708;50.570;8.532;2023-02-28T20:39:00;0.90;99.90
23081;DHT22;11708;50.570;8.532;2023-02-28T20:41:25;0.90;99.90
23081;DHT22;11708;50.570;8.532;2023-02-28T20:43:55;0.90;99.90
23081;DHT22;11708;50.570;8.532;2023-02-28T20:46:23;0.90;99.90
23081;DHT22;11708;50.570;8.532;2023-02-28T20:48:49;0.90;99.90
23081;DHT22;11708;50.570;8.532;2023-02-28T20:51:15;0.80;99.90
23081;DHT22;11708;50.570;8.532;2023-02-28T20:53:41;0.90;99.90
23081;DHT22;11708;50.570;8.532;2023-02-28T20:56:12;0.60;99.90
23081;DHT22;11708;50.570;8.532;2023-02-28T20:58:42;0.80;99.90
23081;DHT22;11708;50.570;8.532;2023-02-28T21:01:11;0.80;99.90
23081;DHT22;11708;50.570;8.532;2023-02-28T21:03:41;0.90;99.90
23081;DHT22;11708;50.570;8.532;2023-02-28T21:06:07;1.00;99.90
23081;DHT22;11708;50.570;8.532;2023-02-28T21:08:35;1.00;99.90
23081;DHT22;11708;50.570;8.532;2023-02-28T21:11:01;1.00;99.90
23081;DHT22;11708;50.570;8.532;2023-02-28T21:13:26;0.90;99.90
23081;DHT22;11708;50.570;8.532;2023-02-28T21:15:52;0.90;99.90
23081;DHT22;11708;50.570;8.532;2023-02-28T21:18:18;0.80;99.90
23081;DHT22;11708;50.570;8.532;2023-02-28T21:20:44;0.90;99.90
23081;DHT22;11708;50.570;8.532;2023-02-28T21:23:10;0.90;99.90
23081;DHT22;11708;50.570;8.532;2023-02-28T21:25:36;1.00;99.90
23081;DHT22;11708;50.570;8.532;2023-02-28T21:28:01;0.90;99.90
23081;DHT22;11708;50.570;8.532;2023-02-28T21:30:28;0.90;99.90
23081;DHT22;11708;50.570;8.532;2023-02-28T21:32:53;0.90;99.90
23081;DHT22;11708;50.570;8.532;2023-02-28T21:35:19;0.80;99.90
23081;DHT22;11708;50.570;8.532;2023-02-28T21:37:45;0.80;99.90
23081;DHT22;11708;50.570;8.532;2023-02-28T21:40:12;0.80;99.90
23081;DHT22;11708;50.570;8.532;2023-02-28T21:42:37;0.80;99.90
23081;DHT22;11708;50.570;8.532;2023-02-28T21:45:03;0.70;99.90
23081;DHT22;11708;50.570;8.532;2023-02-28T21:47:29;0.70;99.90
23081;DHT22;11708;50.570;8.532;2023-02-28T21:49:55;0.70;99.90
23081;DHT22;11708;50.570;8.532;2023-02-28T21:52:21;0.60;99.90
23081;DHT22;11708;50.570;8.532;2023-02-28T21:54:47;0.60;99.90
23081;DHT22;11708;50.570;8.532;2023-02-28T21:57:13;0.60;99.90
23081;DHT22;11708;50.570;8.532;2023-02-28T21:59:43;0.60;99.90
23081;DHT22;11708;50.570;8.532;2023-02-28T22:02:09;0.50;99.90
23081;DHT22;11708;50.570;8.532;2023-02-28T22:04:35;0.50;99.90
23081;DHT22;11708;50.570;8.532;2023-02-28T22:07:01;0.50;99.90
23081;DHT22;11708;50.570;8.532;2023-02-28T22:09:27;0.50;99.90
23081;DHT22;11708;50.570;8.532;2023-02-28T22:11:52;0.50;99.90
23081;DHT22;11708;50.570;8.532;2023-02-28T22:14:19;0.40;99.90
23081;DHT22;11708;50.570;8.532;2023-02-28T22:16:44;0.40;99.90
23081;DHT22;11708;50.570;8.532;2023-02-28T22:19:10;0.40;99.90
23081;DHT22;11708;50.570;8.532;2023-02-28T22:21:37;0.40;99.90
23081;DHT22;11708;50.570;8.532;2023-02-28T22:24:03;0.40;99.90
23081;DHT22;11708;50.570;8.532;2023-02-28T22:26:30;0.40;99.90
23081;DHT22;11708;50.570;8.532;2023-02-28T22:28:55;0.40;99.90